createdAt,value
2017-11-10T00:01:27.065Z,96802.23
2017-11-10T00:03:03.662Z,96839.45
2017-11-10T00:04:40.562Z,96857.70
2017-11-10T00:06:18.343Z,96862.87
2017-11-10T00:07:54.772Z,96814.27
2017-11-10T00:09:31.439Z,96703.97
2017-11-10T00:11:07.848Z,96715.87
2017-11-10T00:12:44.502Z,96784.73
2017-11-10T00:14:20.938Z,96826.08
2017-11-10T00:16:00.491Z,96828.68
2017-11-10T00:17:39.102Z,96859.52
2017-11-10T00:19:15.878Z,96907.86
2017-11-10T00:20:56.815Z,96885.23
2017-11-10T00:22:40.343Z,96714.91
2017-11-10T00:24:28.583Z,96776.95
2017-11-10T00:26:09.769Z,96776.53
2017-11-10T00:27:51.738Z,96776.10
2017-11-10T00:29:30.218Z,96693.98
2017-11-10T00:31:10.771Z,96604.65
2017-11-10T00:32:47.841Z,96669.36
2017-11-10T00:34:24.839Z,96690.13
2017-11-10T00:36:03.093Z,96703.17
2017-11-10T00:37:43.551Z,96692.73
2017-11-10T00:39:21.303Z,96713.53
2017-11-10T00:40:58.950Z,96745.30
2017-11-10T00:42:37.190Z,96707.90
2017-11-10T00:44:17.503Z,96684.98
2017-11-10T00:46:08.087Z,96680.76
2017-11-10T00:47:47.956Z,96674.03
2017-11-10T00:50:22.053Z,96690.66
2017-11-10T00:52:13.909Z,96631.41
2017-11-10T00:53:50.708Z,96610.61
2017-11-10T00:55:42.350Z,96483.50
2017-11-10T00:57:41.395Z,96503.42
2017-11-10T00:59:30.724Z,96622.78
2017-11-10T01:01:50.312Z,96672.33
2017-11-10T01:03:31.950Z,96737.41
2017-11-10T01:05:19.867Z,96751.05
2017-11-10T01:07:17.970Z,96712.84
2017-11-10T01:09:16.957Z,96790.05
2017-11-10T01:10:55.693Z,96592.91
2017-11-10T01:12:33.863Z,96646.81
2017-11-10T01:14:23.321Z,96758.80
2017-11-10T01:16:06.237Z,96771.38
2017-11-10T01:17:49.503Z,96778.44
2017-11-10T01:20:27.262Z,96792.66
2017-11-10T01:22:20.677Z,96805.73
2017-11-10T01:24:08.214Z,96809.67
2017-11-10T01:25:52.654Z,96834.48
2017-11-10T01:27:35.343Z,96895.44
2017-11-10T01:29:16.197Z,96936.23
2017-11-10T01:30:54.430Z,96966.22
2017-11-10T01:32:30.789Z,96973.30
2017-11-10T01:34:07.467Z,97041.94
2017-11-10T01:35:45.827Z,97014.17
2017-11-10T01:37:25.711Z,96950.61
2017-11-10T01:39:09.475Z,97001.92
2017-11-10T01:40:45.950Z,96985.35
2017-11-10T01:42:23.249Z,96892.36
2017-11-10T01:44:00.847Z,96886.75
2017-11-10T01:45:37.490Z,96931.48
2017-11-10T01:47:15.200Z,96885.28
2017-11-10T01:48:53.011Z,96888.42
2017-11-10T01:50:29.309Z,96965.00
2017-11-10T01:52:05.597Z,96810.69
2017-11-10T01:53:42.091Z,96757.27
2017-11-10T01:55:26.819Z,96789.77
2017-11-10T01:57:14.362Z,96840.16
2017-11-10T01:58:53.375Z,96883.53
2017-11-10T02:00:32.918Z,96849.61
2017-11-10T02:02:09.995Z,96774.08
2017-11-10T02:03:48.024Z,96707.27
2017-11-10T02:05:25.113Z,96683.86
2017-11-10T02:07:05.611Z,96678.17
2017-11-10T02:08:45.820Z,96649.09
2017-11-10T02:10:22.950Z,96630.80
2017-11-10T02:12:01.246Z,96549.97
2017-11-10T02:13:40.693Z,96602.10
2017-11-10T02:15:22.581Z,96521.48
2017-11-10T02:17:09.733Z,96407.73
2017-11-10T02:18:47.267Z,96537.90
2017-11-10T02:20:25.894Z,96575.21
2017-11-10T02:22:13.518Z,96597.38
2017-11-10T02:24:14.610Z,96572.66
2017-11-10T02:26:04.147Z,96602.58
2017-11-10T02:27:56.611Z,96593.92
2017-11-10T02:29:44.716Z,96687.74
2017-11-10T02:31:32.370Z,96670.42
2017-11-10T02:33:15.939Z,96675.52
2017-11-10T02:34:59.505Z,96642.51
2017-11-10T02:36:45.218Z,96629.48
2017-11-10T02:38:28.861Z,96588.70
2017-11-10T02:40:08.749Z,96684.75
2017-11-10T02:41:47.993Z,96746.83
2017-11-10T02:43:25.659Z,96717.25
2017-11-10T02:45:02.010Z,96707.35
2017-11-10T02:46:38.850Z,96648.25
2017-11-10T02:48:15.495Z,96613.47
2017-11-10T02:49:52.023Z,96484.20
2017-11-10T02:51:29.163Z,96372.69
2017-11-10T02:53:07.249Z,96458.21
2017-11-10T02:54:44.323Z,96308.52
2017-11-10T02:56:21.930Z,96374.49
2017-11-10T02:57:58.302Z,96485.10
2017-11-10T02:59:36.088Z,96607.05
2017-11-10T03:01:12.609Z,96610.02
2017-11-10T03:02:49.226Z,96661.00
2017-11-10T03:04:25.658Z,96633.14
2017-11-10T03:06:02.413Z,96658.82
2017-11-10T03:07:38.694Z,96633.56
2017-11-10T03:09:15.357Z,96606.25
2017-11-10T03:10:51.720Z,96677.91
2017-11-10T03:12:28.462Z,96613.16
2017-11-10T03:14:04.976Z,96621.30
2017-11-10T03:15:41.672Z,96522.86
2017-11-10T03:17:19.457Z,96353.27
2017-11-10T03:18:56.950Z,96460.44
2017-11-10T03:20:33.432Z,96530.20
2017-11-10T03:22:09.938Z,96501.23
2017-11-10T03:23:46.230Z,96589.18
2017-11-10T03:25:22.807Z,96661.31
2017-11-10T03:26:59.389Z,96602.27
2017-11-10T03:28:35.640Z,96587.84
2017-11-10T03:30:12.739Z,96591.89
2017-11-10T03:31:54.073Z,96580.58
2017-11-10T03:33:30.383Z,96504.20
2017-11-10T03:35:06.908Z,96525.03
2017-11-10T03:36:43.349Z,96541.94
2017-11-10T03:38:19.967Z,96397.48
2017-11-10T03:39:56.361Z,96410.95
2017-11-10T03:41:32.912Z,96508.19
2017-11-10T03:43:09.235Z,96289.52
2017-11-10T03:44:46.298Z,96421.31
2017-11-10T03:46:23.506Z,96502.52
2017-11-10T03:47:59.935Z,96549.31
2017-11-10T03:49:36.241Z,96647.53
2017-11-10T03:51:12.794Z,96689.66
2017-11-10T03:52:49.016Z,96584.98
2017-11-10T03:54:25.266Z,96639.25
2017-11-10T03:56:02.423Z,96650.20
2017-11-10T03:57:39.181Z,96678.34
2017-11-10T03:59:16.031Z,96574.08
2017-11-10T04:00:53.194Z,96414.56
2017-11-10T04:02:30.199Z,96419.20
2017-11-10T04:04:09.241Z,96490.36
2017-11-10T04:05:45.954Z,96594.17
2017-11-10T04:07:22.551Z,96679.66
2017-11-10T04:08:59.028Z,96644.98
2017-11-10T04:10:35.654Z,96604.06
2017-11-10T04:12:12.859Z,96653.33
2017-11-10T04:13:49.316Z,96658.50
2017-11-10T04:15:27.645Z,96645.15
2017-11-10T04:17:04.922Z,96717.55
2017-11-10T04:18:44.213Z,96765.55
2017-11-10T04:20:23.379Z,96772.20
2017-11-10T04:22:00.941Z,96736.23
2017-11-10T04:23:38.948Z,96778.80
2017-11-10T04:25:15.963Z,96773.53
2017-11-10T04:26:53.266Z,96757.09
2017-11-10T04:28:29.469Z,96754.42
2017-11-10T04:30:06.100Z,96744.44
2017-11-10T04:31:42.960Z,96653.75
2017-11-10T04:33:20.124Z,96708.04
2017-11-10T04:34:57.035Z,96794.11
2017-11-10T04:36:34.452Z,96710.54
2017-11-10T04:38:11.492Z,96702.36
2017-11-10T04:39:48.421Z,96723.20
2017-11-10T04:41:26.121Z,96735.97
2017-11-10T04:43:03.329Z,96723.83
2017-11-10T04:44:40.300Z,96848.83
2017-11-10T04:46:16.869Z,96915.81
2017-11-10T04:47:53.636Z,96840.96
2017-11-10T04:49:30.340Z,96729.03
2017-11-10T04:51:07.618Z,96829.34
2017-11-10T04:52:43.966Z,96850.11
2017-11-10T04:54:20.510Z,96848.03
2017-11-10T04:55:57.426Z,96861.97
2017-11-10T04:57:35.320Z,96925.92
2017-11-10T04:59:13.076Z,97004.64
2017-11-10T05:00:50.475Z,96975.08
2017-11-10T05:02:27.290Z,97002.03
2017-11-10T05:04:03.649Z,96985.96
2017-11-10T05:05:40.839Z,96968.91
2017-11-10T05:07:17.779Z,96799.81
2017-11-10T05:08:54.364Z,96778.67
2017-11-10T05:10:30.657Z,96820.15
2017-11-10T05:12:09.764Z,96691.73
2017-11-10T05:13:46.070Z,96628.77
2017-11-10T05:15:24.395Z,96735.16
2017-11-10T05:17:00.869Z,96810.23
2017-11-10T05:18:38.029Z,96895.61
2017-11-10T05:20:14.357Z,96878.48
2017-11-10T05:21:52.285Z,96781.13
2017-11-10T05:23:29.349Z,96774.63
2017-11-10T05:25:07.406Z,96834.23
2017-11-10T05:26:44.693Z,96850.69
2017-11-10T05:28:21.347Z,96932.52
2017-11-10T05:29:57.700Z,96880.39
2017-11-10T05:31:34.326Z,96915.20
2017-11-10T05:33:11.723Z,96939.01
2017-11-10T05:34:48.746Z,96946.05
2017-11-10T05:36:26.110Z,96800.86
2017-11-10T05:38:02.658Z,96928.73
2017-11-10T05:39:39.440Z,96946.00
2017-11-10T05:41:16.473Z,96913.39
2017-11-10T05:42:53.238Z,97035.70
2017-11-10T05:44:29.891Z,97108.88
2017-11-10T05:46:07.050Z,97166.37
2017-11-10T05:47:44.064Z,96976.03
2017-11-10T05:49:20.471Z,96919.99
2017-11-10T05:50:57.201Z,96967.39
2017-11-10T05:52:34.686Z,97073.66
2017-11-10T05:54:11.881Z,97103.23
2017-11-10T05:55:48.434Z,97172.08
2017-11-10T05:57:27.905Z,97205.53
2017-11-10T05:59:04.384Z,97238.76
2017-11-10T06:00:41.912Z,97230.44
2017-11-10T06:02:19.190Z,97207.42
2017-11-10T06:03:56.001Z,97234.44
2017-11-10T06:05:32.695Z,97179.11
2017-11-10T06:07:09.433Z,97152.55
2017-11-10T06:08:46.472Z,97084.52
2017-11-10T06:10:22.823Z,97054.09
2017-11-10T06:11:59.197Z,96945.58
2017-11-10T06:13:35.855Z,96939.70
2017-11-10T06:15:12.253Z,96994.45
2017-11-10T06:16:49.914Z,96991.42
2017-11-10T06:18:27.219Z,97036.23
2017-11-10T06:20:03.844Z,97051.53
2017-11-10T06:21:40.290Z,96853.06
2017-11-10T06:23:16.812Z,96888.69
2017-11-10T06:24:53.913Z,96952.23
2017-11-10T06:26:31.217Z,96999.21
2017-11-10T06:28:08.664Z,97018.85
2017-11-10T06:29:45.974Z,97052.44
2017-11-10T06:31:22.346Z,97091.94
2017-11-10T06:32:59.478Z,97010.07
2017-11-10T06:34:36.138Z,97045.78
2017-11-10T06:36:19.764Z,97039.75
2017-11-10T06:37:56.545Z,97055.05
2017-11-10T06:39:33.150Z,97103.77
2017-11-10T06:41:09.615Z,97134.25
2017-11-10T06:42:45.963Z,97130.79
2017-11-10T06:44:22.796Z,97176.12
2017-11-10T06:45:59.735Z,97187.77
2017-11-10T06:47:36.186Z,97208.86
2017-11-10T06:49:12.928Z,97137.77
2017-11-10T06:50:49.407Z,97143.95
2017-11-10T06:52:27.224Z,97190.56
2017-11-10T06:54:03.765Z,97154.73
2017-11-10T06:55:40.160Z,97148.23
2017-11-10T06:57:16.438Z,97201.45
2017-11-10T06:58:52.989Z,97240.14
2017-11-10T07:00:29.453Z,97253.83
2017-11-10T07:02:05.909Z,97282.52
2017-11-10T07:03:42.912Z,97288.14
2017-11-10T07:05:19.748Z,97270.73
2017-11-10T07:06:57.414Z,97231.95
2017-11-10T07:08:34.581Z,97117.34
2017-11-10T07:10:10.986Z,97109.46
2017-11-10T07:11:47.713Z,97195.38
2017-11-10T07:13:24.762Z,97153.08
2017-11-10T07:15:01.699Z,97182.30
2017-11-10T07:16:37.986Z,97187.57
2017-11-10T07:18:15.412Z,97263.38
2017-11-10T07:19:51.733Z,97302.16
2017-11-10T07:21:28.008Z,97326.18
2017-11-10T07:23:04.939Z,97293.47
2017-11-10T07:24:41.483Z,97257.30
2017-11-10T07:26:17.762Z,97309.73
2017-11-10T07:27:54.545Z,97348.92
2017-11-10T07:29:30.946Z,97300.03
2017-11-10T07:31:07.483Z,97333.17
2017-11-10T07:32:43.740Z,97363.67
2017-11-10T07:34:21.105Z,97365.91
2017-11-10T07:35:57.427Z,97328.80
2017-11-10T07:37:34.895Z,97355.48
2017-11-10T07:39:11.609Z,97317.01
2017-11-10T07:40:48.053Z,97236.05
2017-11-10T07:42:25.162Z,97245.22
2017-11-10T07:44:02.039Z,97315.86
2017-11-10T07:45:44.952Z,97348.82
2017-11-10T07:47:26.470Z,97423.57
2017-11-10T07:49:02.978Z,97378.60
2017-11-10T07:50:40.839Z,97246.93
2017-11-10T07:52:17.217Z,97200.83
2017-11-10T07:53:53.488Z,97092.13
2017-11-10T07:55:29.840Z,96960.39
2017-11-10T07:57:06.799Z,96895.07
2017-11-10T07:58:43.837Z,97091.91
2017-11-10T08:00:20.227Z,97221.27
2017-11-10T08:01:58.270Z,97250.74
2017-11-10T08:03:34.927Z,97235.05
2017-11-10T08:05:11.242Z,97233.77
2017-11-10T08:06:50.377Z,97219.03
2017-11-10T08:10:15.284Z,97236.48
2017-11-10T08:11:51.816Z,97179.20
2017-11-10T08:13:29.146Z,97145.76
2017-11-10T08:15:05.582Z,97143.57
2017-11-10T08:16:43.200Z,97130.95
2017-11-10T08:18:20.213Z,97037.77
2017-11-10T08:19:56.659Z,97057.94
2017-11-10T08:21:33.617Z,97031.17
2017-11-10T08:23:10.241Z,97106.66
2017-11-10T08:24:46.805Z,97099.63
2017-11-10T08:26:23.140Z,97024.28
2017-11-10T08:28:01.964Z,96996.42
2017-11-10T08:29:42.261Z,97087.86
2017-11-10T08:31:25.180Z,97131.42
2017-11-10T08:33:01.843Z,97141.81
2017-11-10T08:34:38.312Z,97137.92
2017-11-10T08:36:14.865Z,97106.10
2017-11-10T08:37:51.360Z,97089.67
2017-11-10T08:39:27.789Z,97138.78
2017-11-10T08:41:04.354Z,97246.55
2017-11-10T08:42:43.959Z,97246.00
2017-11-10T08:44:22.277Z,97169.27
2017-11-10T08:45:59.090Z,97114.84
2017-11-10T08:47:35.429Z,97124.00
2017-11-10T08:49:12.034Z,97065.16
2017-11-10T08:50:48.351Z,97033.83
2017-11-10T08:52:24.629Z,97092.28
2017-11-10T08:54:01.213Z,97137.98
2017-11-10T08:55:45.445Z,97204.78
2017-11-10T08:57:22.477Z,97091.43
2017-11-10T08:58:59.013Z,97067.07
2017-11-10T09:00:35.283Z,97123.52
2017-11-10T09:02:12.288Z,97045.27
2017-11-10T09:03:48.468Z,97054.86
2017-11-10T09:05:24.789Z,96982.18
2017-11-10T09:07:01.139Z,97027.47
2017-11-10T09:08:38.018Z,97175.93
2017-11-10T09:10:14.539Z,97241.33
2017-11-10T09:11:50.825Z,97322.05
2017-11-10T09:13:27.969Z,97168.95
2017-11-10T09:15:04.590Z,97084.91
2017-11-10T09:16:41.679Z,97216.52
2017-11-10T09:18:18.510Z,97078.41
2017-11-10T09:19:55.349Z,97029.65
2017-11-10T09:21:35.414Z,96996.47
2017-11-10T09:23:11.808Z,97086.64
2017-11-10T09:24:48.454Z,97101.87
2017-11-10T09:26:25.184Z,97051.45
2017-11-10T09:28:01.966Z,97212.58
2017-11-10T09:29:38.819Z,97032.58
2017-11-10T09:31:15.601Z,97110.66
2017-11-10T09:32:52.498Z,97134.17
2017-11-10T09:34:29.103Z,97097.66
2017-11-10T09:36:05.519Z,97220.99
2017-11-10T09:37:42.550Z,97304.13
2017-11-10T09:39:19.566Z,97323.38
2017-11-10T09:40:56.995Z,97418.81
2017-11-10T09:42:33.919Z,97428.42
2017-11-10T09:44:12.183Z,97169.38
2017-11-10T09:45:49.187Z,97242.72
2017-11-10T09:47:30.304Z,97288.05
2017-11-10T09:49:10.820Z,97376.94
2017-11-10T09:50:51.111Z,97381.80
2017-11-10T09:52:28.594Z,97319.48
2017-11-10T09:54:04.866Z,97389.21
2017-11-10T09:55:43.384Z,97324.63
2017-11-10T09:57:20.939Z,97335.98
2017-11-10T09:58:57.997Z,97336.03
2017-11-10T10:00:34.392Z,97322.14
2017-11-10T10:02:11.396Z,97445.98
2017-11-10T10:03:47.793Z,97325.10
2017-11-10T10:05:25.660Z,97271.04
2017-11-10T10:07:02.353Z,97232.83
2017-11-10T10:08:38.885Z,97309.93
2017-11-10T10:10:15.785Z,97437.80
2017-11-10T10:11:54.002Z,97297.70
2017-11-10T10:13:31.162Z,97351.87
2017-11-10T10:15:08.233Z,97426.86
2017-11-10T10:16:44.627Z,97498.45
2017-11-10T10:18:21.336Z,97511.95
2017-11-10T10:19:57.791Z,97552.10
2017-11-10T10:21:34.205Z,97575.25
2017-11-10T10:23:11.363Z,97583.10
2017-11-10T10:24:48.303Z,97567.82
2017-11-10T10:26:24.660Z,97614.30
2017-11-10T10:28:01.998Z,97413.77
2017-11-10T10:29:38.514Z,97353.58
2017-11-10T10:31:16.167Z,97439.89
2017-11-10T10:32:52.575Z,97401.92
2017-11-10T10:34:30.017Z,97493.24
2017-11-10T10:36:06.549Z,97555.63
2017-11-10T10:37:43.305Z,97537.71
2017-11-10T10:39:26.709Z,97440.31
2017-11-10T10:41:03.726Z,97435.66
2017-11-10T10:42:41.992Z,97402.78
2017-11-10T10:44:18.811Z,97345.84
2017-11-10T10:45:55.398Z,97358.48
2017-11-10T10:47:32.282Z,97354.05
2017-11-10T10:49:12.749Z,97304.36
2017-11-10T10:50:49.421Z,97411.53
2017-11-10T10:52:26.021Z,97443.08
2017-11-10T10:54:02.511Z,97359.68
2017-11-10T10:55:38.822Z,97379.79
2017-11-10T10:57:15.685Z,97575.05
2017-11-10T10:58:52.091Z,97656.71
2017-11-10T11:00:29.674Z,97728.39
2017-11-10T11:02:06.163Z,97571.91
2017-11-10T11:03:42.722Z,97594.77
2017-11-10T11:05:19.116Z,97531.72
2017-11-10T11:06:56.180Z,97602.11
2017-11-10T11:08:32.903Z,97738.92
2017-11-10T11:10:10.345Z,97744.55
2017-11-10T11:11:46.891Z,97762.52
2017-11-10T11:13:23.202Z,97754.18
2017-11-10T11:14:59.461Z,97794.86
2017-11-10T11:16:36.210Z,97650.61
2017-11-10T11:18:12.444Z,97696.97
2017-11-10T11:19:49.533Z,97616.06
2017-11-10T11:21:25.996Z,97621.30
2017-11-10T11:23:02.936Z,97587.34
2017-11-10T11:24:39.193Z,97527.77
2017-11-10T11:26:15.506Z,97510.34
2017-11-10T11:27:51.749Z,97501.11
2017-11-10T11:29:28.477Z,97519.43
2017-11-10T11:31:04.874Z,97505.48
2017-11-10T11:32:41.174Z,97453.27
2017-11-10T11:34:18.259Z,97524.00
2017-11-10T11:35:55.533Z,97554.91
2017-11-10T11:37:31.900Z,97492.92
2017-11-10T11:39:08.242Z,97313.16
2017-11-10T11:40:44.488Z,97306.32
2017-11-10T11:42:20.961Z,97475.54
2017-11-10T11:43:57.305Z,97559.77
2017-11-10T11:45:33.738Z,97511.67
2017-11-10T11:47:11.178Z,97532.20
2017-11-10T11:48:48.185Z,97589.91
2017-11-10T11:50:25.183Z,97571.09
2017-11-10T11:52:01.656Z,97568.53
2017-11-10T11:53:38.019Z,97444.89
2017-11-10T11:55:14.694Z,97537.53
2017-11-10T11:56:51.115Z,97448.46
2017-11-10T11:58:27.425Z,97259.64
2017-11-10T12:00:03.870Z,97263.91
2017-11-10T12:01:47.521Z,97373.38
2017-11-10T12:03:23.839Z,97409.06
2017-11-10T12:05:01.022Z,97315.73
2017-11-10T12:06:37.427Z,97233.08
2017-11-10T12:08:15.750Z,97147.48
2017-11-10T12:09:52.214Z,97152.29
2017-11-10T12:11:28.845Z,97116.56
2017-11-10T12:13:05.975Z,97069.55
2017-11-10T12:14:43.067Z,97019.88
2017-11-10T12:16:19.635Z,96911.11
2017-11-10T12:18:02.438Z,97011.20
2017-11-10T12:19:40.347Z,97096.56
2017-11-10T12:21:17.866Z,97078.70
2017-11-10T12:22:54.378Z,97133.95
2017-11-10T12:24:30.875Z,97144.81
2017-11-10T12:26:20.904Z,97107.02
2017-11-10T12:27:57.494Z,97049.08
2017-11-10T12:29:33.909Z,96975.55
2017-11-10T12:31:10.299Z,97064.85
2017-11-10T12:32:47.491Z,97110.44
2017-11-10T12:34:24.226Z,97192.05
2017-11-10T12:36:00.776Z,97218.14
2017-11-10T12:37:37.147Z,97163.64
2017-11-10T12:39:13.517Z,97261.78
2017-11-10T12:40:51.838Z,97277.84
2017-11-10T12:42:30.540Z,97354.58
2017-11-10T12:44:07.369Z,97313.20
2017-11-10T12:45:44.050Z,97291.88
2017-11-10T12:47:20.886Z,97194.19
2017-11-10T12:48:58.993Z,97257.84
2017-11-10T12:50:35.670Z,97237.34
2017-11-10T12:52:13.879Z,97135.75
2017-11-10T12:53:50.721Z,97191.15
2017-11-10T12:55:27.259Z,97179.98
2017-11-10T12:57:03.700Z,97111.39
2017-11-10T12:58:40.075Z,97145.82
2017-11-10T13:00:22.027Z,97341.70
2017-11-10T13:02:01.020Z,97359.44
2017-11-10T13:03:37.657Z,97486.53
2017-11-10T13:05:14.335Z,97501.72
2017-11-10T13:06:51.138Z,97535.85
2017-11-10T13:08:28.022Z,97544.67
2017-11-10T13:10:05.039Z,97559.05
2017-11-10T13:11:41.557Z,97611.88
2017-11-10T13:13:18.062Z,97539.34
2017-11-10T13:14:54.972Z,97507.10
2017-11-10T13:16:31.771Z,97546.77
2017-11-10T13:18:10.665Z,97544.09
2017-11-10T13:19:47.441Z,97465.98
2017-11-10T13:21:24.442Z,97397.45
2017-11-10T13:23:02.690Z,97440.74
2017-11-10T13:24:39.148Z,97503.10
2017-11-10T13:26:22.864Z,97471.69
2017-11-10T13:28:06.409Z,97397.45
2017-11-10T13:29:43.661Z,97484.82
2017-11-10T13:31:20.406Z,97528.80
2017-11-10T13:32:57.208Z,97562.14
2017-11-10T13:34:40.374Z,97638.26
2017-11-10T13:36:16.965Z,97722.52
2017-11-10T13:37:53.485Z,97655.17
2017-11-10T13:39:31.417Z,97701.16
2017-11-10T13:41:08.590Z,97797.33
2017-11-10T13:42:45.007Z,97707.64
2017-11-10T13:44:21.454Z,97752.27
2017-11-10T13:45:58.345Z,97767.24
2017-11-10T13:47:37.149Z,97689.73
2017-11-10T13:49:14.238Z,97667.00
2017-11-10T13:50:50.646Z,97604.06
2017-11-10T13:52:28.461Z,97525.00
2017-11-10T13:54:05.239Z,97502.72
2017-11-10T13:55:42.425Z,97494.83
2017-11-10T13:57:20.426Z,97526.34
2017-11-10T13:58:58.400Z,97548.20
2017-11-10T14:00:36.416Z,97562.05
2017-11-10T14:02:15.760Z,97629.92
2017-11-10T14:03:52.188Z,97655.65
2017-11-10T14:05:29.153Z,97608.96
2017-11-10T14:07:05.550Z,97594.14
2017-11-10T14:08:41.945Z,97625.59
2017-11-10T14:10:18.442Z,97644.06
2017-11-10T14:11:55.248Z,97586.24
2017-11-10T14:13:31.765Z,97573.66
2017-11-10T14:15:08.281Z,97602.82
2017-11-10T14:16:44.713Z,97680.14
2017-11-10T14:18:32.162Z,97678.43
2017-11-10T14:20:35.920Z,97553.05
2017-11-10T14:22:40.367Z,97513.77
2017-11-10T14:24:17.066Z,97396.78
2017-11-10T14:25:56.248Z,97246.77
2017-11-10T14:27:33.768Z,96938.36
2017-11-10T14:29:10.640Z,96670.29
2017-11-10T14:30:47.043Z,96580.41
2017-11-10T14:32:23.916Z,96479.74
2017-11-10T14:34:00.132Z,96462.31
2017-11-10T14:35:36.723Z,96455.05
2017-11-10T14:37:15.460Z,96457.17
2017-11-10T14:38:51.707Z,96500.52
2017-11-10T14:40:28.318Z,96563.84
2017-11-10T14:42:04.772Z,96650.67
2017-11-10T14:43:41.570Z,96688.91
2017-11-10T14:45:20.862Z,96745.38
2017-11-10T14:46:57.390Z,96787.41
2017-11-10T14:48:34.217Z,96788.73
2017-11-10T14:50:10.764Z,96823.10
2017-11-10T14:51:47.278Z,96837.56
2017-11-10T14:53:24.253Z,96877.50
2017-11-10T14:55:01.816Z,96923.60
2017-11-10T14:56:39.074Z,96954.45
2017-11-10T14:58:16.010Z,97005.00
2017-11-10T14:59:53.092Z,97008.94
2017-11-10T15:01:30.196Z,97008.41
2017-11-10T15:03:07.016Z,97063.77
2017-11-10T15:04:44.684Z,97133.05
2017-11-10T15:06:20.995Z,97148.64
2017-11-10T15:07:57.787Z,97162.64
2017-11-10T15:09:34.592Z,97195.86
2017-11-10T15:11:11.559Z,97249.80
2017-11-10T15:12:48.934Z,97288.13
2017-11-10T15:14:25.589Z,97244.16
2017-11-10T15:16:03.156Z,97227.13
2017-11-10T15:17:41.382Z,97252.52
2017-11-10T15:19:17.761Z,97279.89
2017-11-10T15:20:54.666Z,97297.77
2017-11-10T15:22:31.787Z,97318.75
2017-11-10T15:24:08.519Z,97326.09
2017-11-10T15:25:45.122Z,97329.71
2017-11-10T15:27:22.593Z,97307.38
2017-11-10T15:28:58.908Z,97299.96
2017-11-10T15:30:36.830Z,97303.95
2017-11-10T15:32:13.309Z,97300.06
2017-11-10T15:33:50.194Z,97259.75
2017-11-10T15:35:26.953Z,97262.41
2017-11-10T15:37:03.418Z,97254.70
2017-11-10T15:38:42.706Z,97171.01
2017-11-10T15:40:19.530Z,97190.69
2017-11-10T15:41:56.234Z,97125.73
2017-11-10T15:43:33.185Z,97097.00
2017-11-10T15:45:10.098Z,97044.25
2017-11-10T15:46:47.325Z,97046.44
2017-11-10T15:48:23.889Z,97081.19
2017-11-10T15:50:00.850Z,97053.80
2017-11-10T15:51:37.467Z,96999.02
2017-11-10T15:53:14.949Z,96945.44
2017-11-10T15:54:52.411Z,96935.94
2017-11-10T15:56:30.082Z,96888.02
2017-11-10T15:58:07.107Z,96895.06
2017-11-10T15:59:44.424Z,96852.90
2017-11-10T16:01:21.313Z,96821.93
2017-11-10T16:02:58.248Z,96812.82
2017-11-10T16:04:35.175Z,96831.13
2017-11-10T16:06:12.225Z,96819.04
2017-11-10T16:07:49.451Z,96791.59
2017-11-10T16:09:25.959Z,96742.40
2017-11-10T16:11:02.393Z,96760.65
2017-11-10T16:12:38.972Z,96775.85
2017-11-10T16:14:15.335Z,96793.15
2017-11-10T16:15:52.057Z,96786.27
2017-11-10T16:17:28.655Z,96775.52
2017-11-10T16:19:05.515Z,96780.27
2017-11-10T16:20:42.180Z,96724.20
2017-11-10T16:22:18.757Z,96699.48
2017-11-10T16:23:56.169Z,96739.00
2017-11-10T16:25:34.466Z,96791.59
2017-11-10T16:27:10.860Z,96840.27
2017-11-10T16:28:47.161Z,96864.65
2017-11-10T16:30:25.345Z,96869.44
2017-11-10T16:32:05.605Z,96875.47
2017-11-10T16:33:41.995Z,96902.51
2017-11-10T16:35:18.423Z,96870.68
2017-11-10T16:36:55.173Z,96854.13
2017-11-10T16:38:31.870Z,96853.64
2017-11-10T16:40:08.548Z,96859.34
2017-11-10T16:41:46.075Z,96861.47
2017-11-10T16:43:23.123Z,96883.72
2017-11-10T16:44:59.469Z,96890.25
2017-11-10T16:46:36.671Z,96914.13
2017-11-10T16:48:13.062Z,96960.67
2017-11-10T16:49:49.726Z,96975.04
2017-11-10T16:51:26.155Z,96871.11
2017-11-10T16:53:03.287Z,96851.09
2017-11-10T16:54:39.691Z,96813.77
2017-11-10T16:56:17.937Z,96819.52
2017-11-10T16:57:54.557Z,96800.22
2017-11-10T16:59:32.536Z,96818.08
2017-11-10T17:01:09.433Z,96755.49
2017-11-10T17:02:47.122Z,96806.44
2017-11-10T17:04:23.577Z,96855.03
2017-11-10T17:06:00.674Z,96905.44
2017-11-10T17:07:37.828Z,96947.99
2017-11-10T17:09:20.588Z,96930.20
2017-11-10T17:10:57.254Z,96907.56
2017-11-10T17:12:35.169Z,96883.23
2017-11-10T17:14:12.021Z,96829.48
2017-11-10T17:15:49.705Z,96784.09
2017-11-10T17:17:27.468Z,96765.44
2017-11-10T17:19:03.999Z,96709.43
2017-11-10T17:20:40.466Z,96705.53
2017-11-10T17:22:17.830Z,96721.66
2017-11-10T17:23:55.202Z,96760.65
2017-11-10T17:25:31.795Z,96805.05
2017-11-10T17:27:08.481Z,96798.47
2017-11-10T17:28:46.011Z,96748.94
2017-11-10T17:30:22.628Z,96746.81
2017-11-10T17:32:00.921Z,96734.16
2017-11-10T17:33:38.565Z,96747.09
2017-11-10T17:35:15.915Z,96735.02
2017-11-10T17:36:52.784Z,96738.09
2017-11-10T17:38:29.819Z,96734.53
2017-11-10T17:40:06.769Z,96714.95
2017-11-10T17:41:44.681Z,96725.48
2017-11-10T17:43:21.272Z,96721.97
2017-11-10T17:44:57.695Z,96745.43
2017-11-10T17:46:34.663Z,96707.20
2017-11-10T17:48:11.799Z,96695.55
2017-11-10T17:49:48.621Z,96681.71
2017-11-10T17:51:25.518Z,96699.38
2017-11-10T17:53:02.170Z,96638.19
2017-11-10T17:54:39.129Z,96577.43
2017-11-10T17:56:15.725Z,96626.53
2017-11-10T17:57:52.190Z,96726.72
2017-11-10T17:59:29.146Z,96710.60
2017-11-10T18:01:06.528Z,96600.77
2017-11-10T18:02:43.637Z,96569.04
2017-11-10T18:04:20.132Z,96567.29
2017-11-10T18:05:56.836Z,96529.14
2017-11-10T18:07:33.601Z,96460.20
2017-11-10T18:09:10.436Z,96406.42
2017-11-10T18:10:47.032Z,96432.01
2017-11-10T18:12:23.767Z,96458.45
2017-11-10T18:14:00.987Z,96474.48
2017-11-10T18:15:38.947Z,96471.83
2017-11-10T18:17:15.735Z,96479.69
2017-11-10T18:18:52.945Z,96495.73
2017-11-10T18:20:30.213Z,96501.30
2017-11-10T18:22:07.182Z,96498.33
2017-11-10T18:23:44.929Z,96491.70
2017-11-10T18:25:23.844Z,96491.75
2017-11-10T18:27:03.188Z,96519.58
2017-11-10T18:28:40.379Z,96474.44
2017-11-10T18:33:00.404Z,96584.67
2017-11-10T18:34:37.847Z,96596.88
2017-11-10T18:36:16.419Z,96626.00
2017-11-10T18:37:57.369Z,96652.90
2017-11-10T18:39:34.441Z,96680.19
2017-11-10T18:41:11.268Z,96630.17
2017-11-10T18:42:49.741Z,96552.52
2017-11-10T18:44:27.859Z,96594.23
2017-11-10T18:46:05.428Z,96615.97
2017-11-10T18:47:44.787Z,96631.07
2017-11-10T18:49:32.978Z,96573.45
2017-11-10T18:51:10.805Z,96512.05
2017-11-10T18:52:47.871Z,96441.84
2017-11-10T18:54:25.717Z,96410.23
2017-11-10T18:56:04.963Z,96412.41
2017-11-10T18:57:43.343Z,96426.27
2017-11-10T18:59:22.260Z,96491.80
2017-11-10T19:01:00.156Z,96528.18
2017-11-10T19:02:39.272Z,96579.55
2017-11-10T19:04:18.089Z,96612.83
2017-11-10T19:05:55.544Z,96639.73
2017-11-10T19:07:34.571Z,96636.28
2017-11-10T19:09:14.444Z,96560.66
2017-11-10T19:10:54.145Z,96605.03
2017-11-10T19:12:34.628Z,96561.61
2017-11-10T19:14:12.863Z,96566.44
2017-11-10T19:15:49.783Z,96541.15
2017-11-10T19:17:30.110Z,96592.05